createdAt,value
2022-11-24T00:01:38.671Z,83.00
2022-11-24T00:04:05.892Z,83.10
2022-11-24T00:06:34.336Z,83.20
2022-11-24T00:09:01.201Z,83.20
2022-11-24T00:11:29.461Z,83.20
2022-11-24T00:13:56.343Z,83.10
2022-11-24T00:16:27.901Z,83.20
2022-11-24T00:18:55.732Z,83.20
2022-11-24T00:21:25.328Z,83.30
2022-11-24T00:23:53.149Z,83.30
2022-11-24T00:26:21.508Z,83.50
2022-11-24T00:28:49.046Z,83.70
2022-11-24T00:31:20.104Z,83.80
2022-11-24T00:33:47.732Z,83.80
2022-11-24T00:36:15.127Z,83.90
2022-11-24T00:38:41.853Z,83.80
2022-11-24T00:41:08.747Z,83.90
2022-11-24T00:43:35.458Z,83.90
2022-11-24T00:46:02.475Z,84.00
2022-11-24T00:48:29.886Z,84.10
2022-11-24T00:51:01.161Z,84.10
2022-11-24T00:53:28.081Z,84.10
2022-11-24T00:55:55.060Z,84.20
2022-11-24T00:58:22.387Z,84.20
2022-11-24T01:00:49.281Z,84.20
2022-11-24T01:03:16.209Z,84.20
2022-11-24T01:05:42.988Z,84.30
2022-11-24T01:08:09.754Z,84.40
2022-11-24T01:10:36.543Z,84.40
2022-11-24T01:13:03.443Z,84.50
2022-11-24T01:15:30.260Z,84.40
2022-11-24T01:17:57.344Z,84.40
2022-11-24T01:20:24.203Z,84.40
2022-11-24T01:22:50.921Z,84.40
2022-11-24T01:25:17.676Z,84.40
2022-11-24T01:27:44.486Z,84.40
2022-11-24T01:30:11.449Z,84.30
2022-11-24T01:32:38.160Z,84.40
2022-11-24T01:35:05.251Z,84.40
2022-11-24T01:37:34.045Z,84.50
2022-11-24T01:40:00.737Z,84.60
2022-11-24T01:42:36.619Z,84.60
2022-11-24T01:45:37.806Z,84.60
2022-11-24T01:48:05.589Z,84.70
2022-11-24T01:50:32.455Z,84.70
2022-11-24T01:52:59.165Z,84.70
2022-11-24T01:55:35.055Z,84.70
2022-11-24T01:58:05.790Z,84.90
2022-11-24T02:00:33.283Z,84.90
2022-11-24T02:03:00.044Z,84.90
2022-11-24T02:05:28.651Z,84.90
2022-11-24T02:07:57.033Z,84.90
2022-11-24T02:10:23.867Z,84.90
2022-11-24T02:12:51.581Z,84.90
2022-11-24T02:15:18.542Z,84.90
2022-11-24T02:17:45.260Z,84.90
2022-11-24T02:20:12.292Z,84.90
2022-11-24T02:22:42.084Z,85.40
2022-11-24T02:25:14.978Z,85.00
2022-11-24T02:27:42.279Z,85.00
2022-11-24T02:30:09.375Z,84.90
2022-11-24T02:32:36.092Z,84.90
2022-11-24T02:35:04.172Z,84.90
2022-11-24T02:37:30.945Z,85.00
2022-11-24T02:39:57.632Z,84.90
2022-11-24T02:42:24.367Z,85.00
2022-11-24T02:44:52.563Z,85.00
2022-11-24T02:47:19.276Z,85.00
2022-11-24T02:49:45.973Z,85.00
2022-11-24T02:52:12.666Z,85.00
2022-11-24T02:54:39.373Z,85.00
2022-11-24T02:57:06.073Z,85.10
2022-11-24T02:59:32.771Z,85.10
2022-11-24T03:01:59.486Z,85.10
2022-11-24T03:04:26.231Z,85.10
2022-11-24T03:06:52.929Z,85.00
2022-11-24T03:09:19.641Z,85.00
2022-11-24T03:11:46.409Z,85.00
2022-11-24T03:14:13.128Z,85.00
2022-11-24T03:16:39.798Z,85.00
2022-11-24T03:19:06.522Z,85.00
2022-11-24T03:21:33.221Z,85.00
2022-11-24T03:23:59.935Z,85.00
2022-11-24T03:26:26.832Z,85.00
2022-11-24T03:28:55.038Z,85.00
2022-11-24T03:31:22.183Z,85.10
2022-11-24T03:33:48.970Z,85.20
2022-11-24T03:36:15.764Z,85.00
2022-11-24T03:38:42.750Z,85.10
2022-11-24T03:41:09.452Z,85.10
2022-11-24T03:43:42.002Z,85.00
2022-11-24T03:46:10.513Z,85.00
2022-11-24T03:48:37.262Z,85.00
2022-11-24T03:51:04.093Z,85.10
2022-11-24T03:53:31.505Z,85.10
2022-11-24T03:55:58.340Z,85.20
2022-11-24T03:58:25.106Z,85.20
2022-11-24T04:00:52.759Z,85.20
2022-11-24T04:03:19.562Z,85.20
2022-11-24T04:05:46.531Z,85.20
2022-11-24T04:08:13.328Z,85.20
2022-11-24T04:10:40.079Z,85.30
2022-11-24T04:13:15.090Z,85.20
2022-11-24T04:15:42.213Z,85.30
2022-11-24T04:18:09.665Z,85.20
2022-11-24T04:20:36.930Z,85.20
2022-11-24T04:23:03.947Z,85.20
2022-11-24T04:25:30.641Z,85.20
2022-11-24T04:27:57.378Z,85.20
2022-11-24T04:30:24.954Z,85.20
2022-11-24T04:32:51.927Z,85.30
2022-11-24T04:35:18.771Z,85.20
2022-11-24T04:37:45.722Z,85.20
2022-11-24T04:40:12.662Z,85.20
2022-11-24T04:42:39.386Z,85.20
2022-11-24T04:45:06.770Z,85.20
2022-11-24T04:47:33.636Z,85.30
2022-11-24T04:50:00.322Z,85.30
2022-11-24T04:52:27.095Z,85.20
2022-11-24T04:54:53.819Z,85.20
2022-11-24T04:57:25.039Z,85.30
2022-11-24T04:59:52.070Z,85.30
2022-11-24T05:02:18.941Z,85.30
2022-11-24T05:04:45.934Z,85.20
2022-11-24T05:07:18.644Z,85.20
2022-11-24T05:09:59.026Z,85.20
2022-11-24T05:12:27.076Z,85.20
2022-11-24T05:14:53.789Z,85.20
2022-11-24T05:17:20.445Z,85.20
2022-11-24T05:19:47.120Z,85.10
2022-11-24T05:22:13.788Z,85.20
2022-11-24T05:24:40.446Z,85.20
2022-11-24T05:27:07.102Z,85.20
2022-11-24T05:29:33.786Z,85.20
2022-11-24T05:32:00.646Z,85.20
2022-11-24T05:34:27.286Z,85.20
2022-11-24T05:36:54.124Z,85.30
2022-11-24T05:39:21.097Z,85.30
2022-11-24T05:41:47.815Z,85.20
2022-11-24T05:44:14.482Z,85.30
2022-11-24T05:46:41.229Z,85.20
2022-11-24T05:49:07.921Z,85.30
2022-11-24T05:51:34.733Z,85.30
2022-11-24T05:54:01.395Z,85.30
2022-11-24T05:56:28.276Z,85.30
2022-11-24T05:58:54.956Z,85.30
2022-11-24T06:01:21.751Z,85.40
2022-11-24T06:03:48.450Z,85.40
2022-11-24T06:06:15.140Z,85.40
2022-11-24T06:08:41.801Z,85.50
2022-11-24T06:11:09.392Z,85.40
2022-11-24T06:13:36.225Z,85.50
2022-11-24T06:16:03.279Z,85.50
2022-11-24T06:18:29.980Z,85.50
2022-11-24T06:21:10.231Z,85.40
2022-11-24T06:23:37.735Z,85.50
2022-11-24T06:26:04.511Z,85.50
2022-11-24T06:28:31.165Z,85.60
2022-11-24T06:31:02.204Z,85.50
2022-11-24T06:33:35.690Z,85.60
2022-11-24T06:36:03.481Z,85.60
2022-11-24T06:38:30.366Z,85.50
2022-11-24T06:41:04.787Z,85.50
2022-11-24T06:43:31.598Z,85.50
2022-11-24T06:45:58.394Z,85.40
2022-11-24T06:48:25.546Z,85.40
2022-11-24T06:50:52.603Z,85.40
2022-11-24T06:53:19.467Z,85.40
2022-11-24T06:55:46.424Z,85.50
2022-11-24T06:58:13.155Z,85.50
2022-11-24T07:00:39.987Z,85.40
2022-11-24T07:03:06.793Z,85.40
2022-11-24T07:05:33.483Z,85.50
2022-11-24T07:08:00.192Z,85.50
2022-11-24T07:10:27.144Z,85.60
2022-11-24T07:12:53.800Z,85.50
2022-11-24T07:15:20.556Z,85.60
2022-11-24T07:17:47.202Z,85.60
2022-11-24T07:20:13.895Z,85.70
2022-11-24T07:22:40.587Z,85.70
2022-11-24T07:25:07.694Z,85.70
2022-11-24T07:27:34.378Z,85.70
2022-11-24T07:30:01.353Z,85.70
2022-11-24T07:32:28.847Z,85.80
2022-11-24T07:34:55.548Z,85.80
2022-11-24T07:37:24.513Z,85.80
2022-11-24T07:39:54.844Z,85.80
2022-11-24T07:42:21.553Z,85.80
2022-11-24T07:44:48.267Z,85.80
2022-11-24T07:47:14.928Z,85.80
2022-11-24T07:49:41.650Z,85.80
2022-11-24T07:52:08.616Z,85.80
2022-11-24T07:54:35.662Z,85.80
2022-11-24T07:57:02.501Z,85.70
2022-11-24T07:59:29.191Z,85.80
2022-11-24T08:01:55.891Z,85.80
2022-11-24T08:04:25.452Z,85.90
2022-11-24T08:06:52.150Z,86.00
2022-11-24T08:09:18.863Z,85.90
2022-11-24T08:11:45.624Z,85.80
2022-11-24T08:14:12.304Z,85.80
2022-11-24T08:16:39.059Z,85.70
2022-11-24T08:19:05.832Z,85.70
2022-11-24T08:21:32.509Z,85.60
2022-11-24T08:23:59.227Z,85.50
2022-11-24T08:26:26.173Z,85.60
2022-11-24T08:28:57.247Z,85.50
2022-11-24T08:31:24.337Z,85.60
2022-11-24T08:33:51.076Z,85.40
2022-11-24T08:36:18.560Z,85.30
2022-11-24T08:38:45.550Z,85.20
2022-11-24T08:41:14.528Z,85.10
2022-11-24T08:43:41.276Z,85.00
2022-11-24T08:46:09.761Z,85.00
2022-11-24T08:48:36.691Z,84.90
2022-11-24T08:51:11.314Z,84.90
2022-11-24T08:53:38.423Z,84.90
2022-11-24T08:56:05.419Z,84.90
2022-11-24T08:58:32.404Z,84.90
2022-11-24T09:01:19.419Z,84.90
2022-11-24T09:03:50.787Z,84.80
2022-11-24T09:06:19.116Z,84.80
2022-11-24T09:08:45.807Z,84.70
2022-11-24T09:11:13.992Z,84.70
2022-11-24T09:13:40.776Z,84.60
2022-11-24T09:16:17.973Z,84.50
2022-11-24T09:18:44.859Z,84.60
2022-11-24T09:21:12.627Z,84.40
2022-11-24T09:23:39.506Z,84.50
2022-11-24T09:26:33.674Z,84.30
2022-11-24T09:29:01.096Z,84.30
2022-11-24T09:31:29.692Z,84.20
2022-11-24T09:33:56.621Z,84.00
2022-11-24T09:36:23.880Z,83.80
2022-11-24T09:38:50.570Z,83.80
2022-11-24T09:41:23.036Z,83.70
2022-11-24T09:43:58.475Z,83.50
2022-11-24T09:46:33.038Z,83.40
2022-11-24T09:48:59.855Z,83.80
2022-11-24T09:51:28.145Z,82.90
2022-11-24T09:54:02.217Z,82.90
2022-11-24T09:56:30.899Z,83.00
2022-11-24T09:59:00.473Z,83.20
2022-11-24T10:01:33.862Z,83.30
2022-11-24T10:04:05.906Z,83.50
2022-11-24T10:06:38.405Z,83.70
2022-11-24T10:09:26.947Z,83.80
2022-11-24T10:12:18.599Z,83.80
2022-11-24T10:15:00.753Z,84.00
2022-11-24T10:17:44.067Z,83.40
2022-11-24T10:20:52.554Z,82.10
2022-11-24T10:23:39.743Z,80.40
2022-11-24T10:26:36.714Z,79.10
2022-11-24T10:29:12.592Z,78.30
2022-11-24T10:31:41.394Z,78.00
2022-11-24T10:34:18.605Z,78.10
2022-11-24T10:36:47.120Z,78.70
2022-11-24T10:39:28.935Z,79.40
2022-11-24T10:42:20.499Z,80.10
2022-11-24T10:44:47.225Z,80.70
2022-11-24T10:47:18.404Z,81.40
2022-11-24T10:50:04.632Z,81.80
2022-11-24T10:52:34.834Z,82.40
2022-11-24T10:55:02.640Z,81.50
2022-11-24T10:57:36.825Z,80.60
2022-11-24T11:00:33.248Z,80.20
2022-11-24T11:03:32.432Z,79.20
2022-11-24T11:06:15.194Z,77.30
2022-11-24T11:08:41.875Z,77.50
2022-11-24T11:11:22.152Z,77.80
2022-11-24T11:13:55.721Z,78.30
2022-11-24T11:16:30.827Z,79.00
2022-11-24T11:18:57.576Z,79.50
2022-11-24T11:21:35.292Z,80.10
2022-11-24T11:24:11.691Z,80.60
2022-11-24T11:26:38.463Z,81.80
2022-11-24T11:35:00.721Z,81.80
2022-11-24T11:37:31.446Z,81.70
2022-11-24T11:39:58.236Z,81.80
2022-11-24T11:43:01.298Z,81.90
2022-11-24T11:45:36.455Z,82.00
2022-11-24T11:48:03.215Z,82.10
2022-11-24T11:54:16.543Z,82.40
2022-11-24T11:56:44.444Z,82.40
2022-11-24T11:59:14.255Z,82.30
2022-11-24T12:01:58.938Z,82.20
2022-11-24T12:04:52.007Z,82.00
2022-11-24T12:07:18.715Z,82.10
2022-11-24T12:10:17.289Z,81.90
2022-11-24T12:12:53.192Z,81.70
2022-11-24T12:15:34.728Z,81.90
2022-11-24T12:18:48.505Z,82.70
2022-11-24T12:21:26.859Z,81.80
2022-11-24T12:24:03.517Z,81.80
2022-11-24T12:26:58.960Z,82.00
2022-11-24T12:30:10.934Z,82.10
2022-11-24T12:33:14.962Z,82.20
2022-11-24T12:35:57.841Z,82.30
2022-11-24T12:39:03.214Z,82.30
2022-11-24T12:41:58.902Z,82.30
2022-11-24T12:44:37.631Z,82.30
2022-11-24T12:47:16.400Z,82.10
2022-11-24T12:49:54.975Z,82.00
2022-11-24T12:52:31.621Z,82.10
2022-11-24T12:54:58.317Z,82.10
2022-11-24T12:57:29.655Z,82.30
2022-11-24T13:00:06.026Z,82.30
2022-11-24T13:02:54.104Z,82.50
2022-11-24T13:05:49.067Z,82.00
2022-11-24T13:08:15.724Z,81.80
2022-11-24T13:10:58.212Z,81.70
2022-11-24T13:13:29.873Z,81.70
2022-11-24T13:16:20.673Z,81.70
2022-11-24T13:18:47.185Z,81.90
2022-11-24T13:21:50.276Z,81.90
2022-11-24T13:24:17.564Z,81.80
2022-11-24T13:26:53.441Z,81.90
2022-11-24T13:29:38.138Z,81.90
2022-11-24T13:32:10.852Z,81.90
2022-11-24T13:34:40.293Z,81.90
2022-11-24T13:37:31.651Z,81.90
2022-11-24T13:40:11.889Z,81.90
2022-11-24T13:42:57.014Z,82.10
2022-11-24T13:45:41.865Z,82.30
2022-11-24T13:48:21.631Z,82.30
2022-11-24T13:50:52.162Z,82.50
2022-11-24T13:53:21.985Z,82.50
2022-11-24T13:55:59.695Z,82.60
2022-11-24T13:58:47.605Z,83.30
2022-11-24T14:01:20.522Z,82.60
2022-11-24T14:07:08.389Z,82.40
2022-11-24T14:10:03.556Z,82.50
2022-11-24T14:12:30.244Z,82.40
2022-11-24T14:15:33.293Z,82.40
2022-11-24T14:18:00.012Z,82.30
2022-11-24T14:20:27.587Z,82.30
2022-11-24T14:22:54.372Z,82.40
2022-11-24T14:25:31.418Z,82.50
2022-11-24T14:27:59.272Z,82.40
2022-11-24T14:30:26.193Z,82.30
2022-11-24T14:32:59.702Z,82.30
2022-11-24T14:35:28.729Z,82.40
2022-11-24T14:37:55.711Z,82.40
2022-11-24T14:40:41.781Z,82.40
2022-11-24T14:43:22.107Z,82.40
2022-11-24T14:46:02.687Z,82.60
2022-11-24T14:48:52.688Z,82.40
2022-11-24T14:51:37.644Z,82.40
2022-11-24T14:54:13.481Z,82.50
2022-11-24T14:56:40.252Z,82.70
2022-11-24T14:59:23.732Z,82.70
2022-11-24T15:01:50.718Z,82.80
2022-11-24T15:04:38.887Z,82.80
2022-11-24T15:07:25.040Z,82.90
2022-11-24T15:10:00.262Z,82.90
2022-11-24T15:12:39.935Z,83.00
2022-11-24T15:15:17.006Z,82.90
2022-11-24T15:17:51.422Z,83.00
2022-11-24T15:20:38.809Z,83.10
2022-11-24T15:23:24.857Z,83.00
2022-11-24T15:25:58.215Z,83.10
2022-11-24T15:28:25.093Z,83.10
2022-11-24T15:30:56.238Z,83.10
2022-11-24T15:33:23.315Z,83.10
2022-11-24T15:35:50.216Z,83.20
2022-11-24T15:38:16.951Z,83.10
2022-11-24T15:40:47.800Z,83.10
2022-11-24T15:43:37.996Z,83.20
2022-11-24T15:46:05.018Z,83.20
2022-11-24T15:48:31.721Z,83.30
2022-11-24T15:50:59.282Z,83.30
2022-11-24T15:53:30.643Z,83.30
2022-11-24T15:55:57.350Z,83.30
2022-11-24T15:58:24.179Z,83.40
2022-11-24T16:00:50.972Z,83.40
2022-11-24T16:03:45.642Z,83.40
2022-11-24T16:06:04.418Z,83.60
2022-11-24T16:08:31.076Z,83.70
2022-11-24T16:10:57.825Z,84.60
2022-11-24T16:13:24.710Z,83.90
2022-11-24T16:15:51.474Z,84.10
2022-11-24T16:18:18.191Z,84.10
2022-11-24T16:20:44.923Z,84.30
2022-11-24T16:23:11.733Z,84.60
2022-11-24T16:25:38.424Z,84.80
2022-11-24T16:28:05.263Z,85.00
2022-11-24T16:30:31.939Z,85.10
2022-11-24T16:32:58.596Z,85.40
2022-11-24T16:35:27.450Z,85.60
2022-11-24T16:37:54.132Z,85.70
2022-11-24T16:40:20.915Z,85.80
2022-11-24T16:42:47.708Z,85.90
2022-11-24T16:45:14.516Z,86.00
2022-11-24T16:47:41.524Z,86.10
2022-11-24T16:50:09.203Z,86.10
2022-11-24T16:52:35.905Z,86.30
2022-11-24T16:55:02.631Z,86.20
2022-11-24T17:00:05.882Z,86.30
2022-11-24T17:05:08.338Z,86.40
2022-11-24T17:10:10.656Z,86.80
2022-11-24T17:18:23.428Z,87.90
2022-11-24T17:20:37.816Z,87.20
2022-11-24T17:23:04.505Z,88.00
2022-11-24T17:25:34.567Z,87.20
2022-11-24T17:28:01.250Z,87.20
2022-11-24T17:30:28.022Z,87.20
2022-11-24T17:32:56.952Z,88.00
2022-11-24T17:35:23.871Z,87.30
2022-11-24T17:40:28.228Z,87.30
2022-11-24T17:42:59.794Z,87.40
2022-11-24T17:45:27.305Z,87.40
2022-11-24T17:47:54.080Z,87.40
2022-11-24T17:50:25.619Z,87.40
2022-11-24T17:52:54.339Z,87.60
2022-11-24T17:55:21.475Z,87.60
2022-11-24T18:00:19.436Z,87.80
2022-11-24T18:05:19.527Z,87.90
2022-11-24T18:10:15.779Z,87.90
2022-11-24T18:15:17.983Z,88.10
2022-11-24T18:20:15.740Z,89.10
2022-11-24T18:25:17.860Z,88.20
2022-11-24T18:30:14.328Z,88.30
2022-11-24T18:35:16.461Z,88.40
2022-11-24T18:40:18.575Z,88.90
2022-11-24T18:45:19.608Z,89.30
2022-11-24T18:50:19.054Z,88.60
2022-11-24T18:55:20.094Z,88.60
2022-11-24T19:00:21.358Z,88.60
2022-11-24T19:05:18.073Z,88.70
2022-11-24T19:10:20.135Z,88.70
2022-11-24T19:15:18.236Z,88.70
2022-11-24T19:20:19.283Z,88.90
2022-11-24T19:25:20.754Z,88.90
2022-11-24T19:30:22.892Z,89.00
2022-11-24T19:35:22.417Z,89.00
2022-11-24T19:40:20.098Z,88.80
2022-11-24T19:45:22.304Z,88.80
2022-11-24T19:50:23.416Z,88.90
2022-11-24T19:55:20.970Z,88.90
2022-11-24T20:00:23.072Z,88.90
2022-11-24T20:05:23.103Z,89.00
2022-11-24T20:10:21.337Z,89.00
2022-11-24T20:15:20.871Z,89.00
2022-11-24T20:20:18.441Z,88.80
2022-11-24T20:25:20.461Z,88.70
2022-11-24T20:30:23.450Z,88.80
2022-11-24T20:35:21.049Z,88.90
2022-11-24T20:40:23.137Z,89.00
2022-11-24T20:45:25.247Z,89.00
2022-11-24T20:50:26.384Z,89.10
2022-11-24T20:55:22.418Z,89.10
2022-11-24T21:00:24.549Z,89.30
2022-11-24T21:05:25.688Z,89.30
2022-11-24T21:10:25.759Z,89.40
2022-11-24T21:15:28.562Z,89.40
2022-11-24T21:18:03.175Z,89.50
2022-11-24T21:20:29.848Z,90.20
2022-11-24T21:25:27.561Z,89.60
2022-11-24T21:30:24.496Z,89.60
2022-11-24T21:35:26.590Z,89.60
2022-11-24T21:40:27.688Z,89.60
2022-11-24T21:45:25.881Z,89.30
2022-11-24T21:50:22.118Z,89.80
2022-11-24T21:55:24.190Z,89.90
2022-11-24T22:00:26.232Z,89.90
2022-11-24T22:05:27.258Z,90.20
2022-11-24T22:10:28.880Z,89.90
2022-11-24T22:15:26.411Z,89.90
2022-11-24T22:20:25.877Z,89.90
2022-11-24T22:25:27.943Z,89.90
2022-11-24T22:30:30.204Z,89.90
2022-11-24T22:35:27.753Z,90.00
2022-11-24T22:40:29.827Z,90.00
2022-11-24T22:45:27.462Z,90.00
2022-11-24T22:50:29.533Z,89.90
2022-11-24T22:55:29.013Z,89.50
2022-11-24T23:00:26.602Z,89.80
2022-11-24T23:05:28.766Z,89.90
2022-11-24T23:10:29.839Z,89.90
2022-11-24T23:15:31.387Z,89.90
2022-11-24T23:20:32.459Z,90.30
2022-11-24T23:25:30.074Z,89.90
2022-11-24T23:30:32.269Z,90.20
2022-11-24T23:35:33.295Z,89.90
2022-11-24T23:40:32.891Z,89.80
2022-11-24T23:45:33.994Z,89.80
2022-11-24T23:50:35.484Z,89.80
2022-11-24T23:55:31.542Z,89.90
